sensor_id;sensor_type;location;lat;lon;timestamp;temperature;humidity
12604;DHT22;6367;52.508;13.284;2023-07-30T00:01:41;21.70;99.90
12604;DHT22;6367;52.508;13.284;2023-07-30T00:04:06;21.70;99.90
12604;DHT22;6367;52.508;13.284;2023-07-30T00:06:32;21.70;99.90
12604;DHT22;6367;52.508;13.284;2023-07-30T00:08:58;21.60;99.90
12604;DHT22;6367;52.508;13.284;2023-07-30T00:11:23;21.60;99.90
12604;DHT22;6367;52.508;13.284;2023-07-30T00:13:49;21.60;99.90
12604;DHT22;6367;52.508;13.284;2023-07-30T00:16:15;21.60;99.90
12604;DHT22;6367;52.508;13.284;2023-07-30T00:18:40;21.60;99.90
12604;DHT22;6367;52.508;13.284;2023-07-30T00:21:06;21.60;99.90
12604;DHT22;6367;52.508;13.284;2023-07-30T00:23:31;21.50;99.90
12604;DHT22;6367;52.508;13.284;2023-07-30T00:25:57;21.50;99.90
12604;DHT22;6367;52.508;13.284;2023-07-30T00:28:23;21.50;99.90
12604;DHT22;6367;52.508;13.284;2023-07-30T00:30:48;21.50;99.90
12604;DHT22;6367;52.508;13.284;2023-07-30T00:33:14;21.50;99.90
12604;DHT22;6367;52.508;13.284;2023-07-30T00:35:39;21.50;99.90
12604;DHT22;6367;52.508;13.284;2023-07-30T00:38:05;21.40;99.90
12604;DHT22;6367;52.508;13.284;2023-07-30T00:40:30;21.40;99.90
12604;DHT22;6367;52.508;13.284;2023-07-30T00:42:56;21.40;99.90
12604;DHT22;6367;52.508;13.284;2023-07-30T00:45:22;21.40;99.90
12604;DHT22;6367;52.508;13.284;2023-07-30T00:47:48;21.40;99.90
12604;DHT22;6367;52.508;13.284;2023-07-30T00:50:14;21.30;99.90
12604;DHT22;6367;52.508;13.284;2023-07-30T00:52:41;21.30;99.90
12604;DHT22;6367;52.508;13.284;2023-07-30T00:55:07;21.20;99.90
12604;DHT22;6367;52.508;13.284;2023-07-30T00:57:34;21.20;99.90
12604;DHT22;6367;52.508;13.284;2023-07-30T01:00:00;21.10;99.90
12604;DHT22;6367;52.508;13.284;2023-07-30T01:02:29;21.20;99.90
12604;DHT22;6367;52.508;13.284;2023-07-30T01:04:57;21.10;99.90
12604;DHT22;6367;52.508;13.284;2023-07-30T01:07:22;21.00;99.90
12604;DHT22;6367;52.508;13.284;2023-07-30T01:09:48;20.80;99.90
12604;DHT22;6367;52.508;13.284;2023-07-30T01:12:14;20.80;99.90
12604;DHT22;6367;52.508;13.284;2023-07-30T01:14:40;20.70;99.90
12604;DHT22;6367;52.508;13.284;2023-07-30T01:17:06;20.70;99.90
12604;DHT22;6367;52.508;13.284;2023-07-30T01:19:31;20.80;99.90
12604;DHT22;6367;52.508;13.284;2023-07-30T01:21:58;20.90;99.90
12604;DHT22;6367;52.508;13.284;2023-07-30T01:24:23;20.90;99.90
12604;DHT22;6367;52.508;13.284;2023-07-30T01:26:59;20.80;99.90
12604;DHT22;6367;52.508;13.284;2023-07-30T01:29:42;20.90;99.90
12604;DHT22;6367;52.508;13.284;2023-07-30T01:32:12;20.90;99.90
12604;DHT22;6367;52.508;13.284;2023-07-30T01:34:41;20.80;99.90
12604;DHT22;6367;52.508;13.284;2023-07-30T01:37:09;20.80;99.90
12604;DHT22;6367;52.508;13.284;2023-07-30T01:39:37;20.90;99.90
12604;DHT22;6367;52.508;13.284;2023-07-30T01:42:04;20.90;99.90
12604;DHT22;6367;52.508;13.284;2023-07-30T01:44:30;20.90;99.90
12604;DHT22;6367;52.508;13.284;2023-07-30T01:46:56;20.90;99.90
12604;DHT22;6367;52.508;13.284;2023-07-30T01:49:21;20.90;99.90
12604;DHT22;6367;52.508;13.284;2023-07-30T01:51:48;20.90;99.90
12604;DHT22;6367;52.508;13.284;2023-07-30T01:54:13;20.80;99.90
12604;DHT22;6367;52.508;13.284;2023-07-30T01:56:39;20.80;99.90
12604;DHT22;6367;52.508;13.284;2023-07-30T01:59:05;20.90;99.90
12604;DHT22;6367;52.508;13.284;2023-07-30T02:01:30;20.90;99.90
12604;DHT22;6367;52.508;13.284;2023-07-30T02:03:56;20.70;99.90
12604;DHT22;6367;52.508;13.284;2023-07-30T02:06:22;20.60;99.90
12604;DHT22;6367;52.508;13.284;2023-07-30T02:08:47;20.60;99.90
12604;DHT22;6367;52.508;13.284;2023-07-30T02:11:13;20.60;99.90
12604;DHT22;6367;52.508;13.284;2023-07-30T02:13:39;20.60;99.90
12604;DHT22;6367;52.508;13.284;2023-07-30T02:16:04;20.60;99.90
12604;DHT22;6367;52.508;13.284;2023-07-30T02:18:30;20.60;99.90
12604;DHT22;6367;52.508;13.284;2023-07-30T02:20:55;20.50;99.90
12604;DHT22;6367;52.508;13.284;2023-07-30T02:23:21;20.50;99.90
12604;DHT22;6367;52.508;13.284;2023-07-30T02:25:47;20.60;99.90
12604;DHT22;6367;52.508;13.284;2023-07-30T02:28:12;20.50;99.90
12604;DHT22;6367;52.508;13.284;2023-07-30T02:30:38;20.50;99.90
12604;DHT22;6367;52.508;13.284;2023-07-30T02:33:04;20.60;99.90
12604;DHT22;6367;52.508;13.284;2023-07-30T02:35:29;20.50;99.90
12604;DHT22;6367;52.508;13.284;2023-07-30T02:37:55;20.40;99.90
12604;DHT22;6367;52.508;13.284;2023-07-30T02:40:20;20.40;99.90
12604;DHT22;6367;52.508;13.284;2023-07-30T02:42:46;20.40;99.90
12604;DHT22;6367;52.508;13.284;2023-07-30T02:45:12;20.40;99.90
12604;DHT22;6367;52.508;13.284;2023-07-30T02:47:38;20.40;99.90
12604;DHT22;6367;52.508;13.284;2023-07-30T02:50:04;20.40;99.90
12604;DHT22;6367;52.508;13.284;2023-07-30T02:52:30;20.40;99.90
12604;DHT22;6367;52.508;13.284;2023-07-30T02:54:55;20.40;99.90
12604;DHT22;6367;52.508;13.284;2023-07-30T02:57:21;20.30;99.90
12604;DHT22;6367;52.508;13.284;2023-07-30T02:59:46;20.20;99.90
12604;DHT22;6367;52.508;13.284;2023-07-30T03:02:12;20.30;99.90
12604;DHT22;6367;52.508;13.284;2023-07-30T03:04:38;20.20;99.90
12604;DHT22;6367;52.508;13.284;2023-07-30T03:07:04;20.20;99.90
12604;DHT22;6367;52.508;13.284;2023-07-30T03:09:30;20.20;99.90
12604;DHT22;6367;52.508;13.284;2023-07-30T03:11:55;20.10;99.90
12604;DHT22;6367;52.508;13.284;2023-07-30T03:14:21;20.20;99.90
12604;DHT22;6367;52.508;13.284;2023-07-30T03:16:47;20.20;99.90
12604;DHT22;6367;52.508;13.284;2023-07-30T03:19:13;20.20;99.90
12604;DHT22;6367;52.508;13.284;2023-07-30T03:21:39;20.20;99.90
12604;DHT22;6367;52.508;13.284;2023-07-30T03:24:05;20.10;99.90
12604;DHT22;6367;52.508;13.284;2023-07-30T03:26:30;20.10;99.90
12604;DHT22;6367;52.508;13.284;2023-07-30T03:28:56;20.20;99.90
12604;DHT22;6367;52.508;13.284;2023-07-30T03:31:22;20.20;99.90
12604;DHT22;6367;52.508;13.284;2023-07-30T03:33:47;20.20;99.90
12604;DHT22;6367;52.508;13.284;2023-07-30T03:36:13;20.20;99.90
12604;DHT22;6367;52.508;13.284;2023-07-30T03:38:40;20.20;99.90
12604;DHT22;6367;52.508;13.284;2023-07-30T03:41:06;20.20;99.90
12604;DHT22;6367;52.508;13.284;2023-07-30T03:43:33;20.10;99.90
12604;DHT22;6367;52.508;13.284;2023-07-30T03:45:59;20.00;99.90
12604;DHT22;6367;52.508;13.284;2023-07-30T03:48:24;20.00;99.90
12604;DHT22;6367;52.508;13.284;2023-07-30T03:50:50;20.00;99.90
12604;DHT22;6367;52.508;13.284;2023-07-30T03:53:16;19.90;99.90
12604;DHT22;6367;52.508;13.284;2023-07-30T03:55:42;19.90;99.90
12604;DHT22;6367;52.508;13.284;2023-07-30T03:58:07;19.90;99.90
12604;DHT22;6367;52.508;13.284;2023-07-30T04:00:33;19.80;99.90
12604;DHT22;6367;52.508;13.284;2023-07-30T04:02:59;19.90;99.90
12604;DHT22;6367;52.508;13.284;2023-07-30T04:05:24;19.80;99.90
12604;DHT22;6367;52.508;13.284;2023-07-30T04:07:50;19.90;99.90
12604;DHT22;6367;52.508;13.284;2023-07-30T04:10:16;19.90;99.90
12604;DHT22;6367;52.508;13.284;2023-07-30T04:12:41;19.90;99.90
12604;DHT22;6367;52.508;13.284;2023-07-30T04:15:07;19.80;99.90
12604;DHT22;6367;52.508;13.284;2023-07-30T04:17:36;19.80;99.90
12604;DHT22;6367;52.508;13.284;2023-07-30T04:20:02;19.80;99.90
12604;DHT22;6367;52.508;13.284;2023-07-30T04:22:28;19.80;99.90
12604;DHT22;6367;52.508;13.284;2023-07-30T04:24:54;19.80;99.90
12604;DHT22;6367;52.508;13.284;2023-07-30T04:27:19;19.80;99.90
12604;DHT22;6367;52.508;13.284;2023-07-30T04:29:45;19.80;99.90
12604;DHT22;6367;52.508;13.284;2023-07-30T04:32:11;19.70;99.90
12604;DHT22;6367;52.508;13.284;2023-07-30T04:34:36;19.80;99.90
12604;DHT22;6367;52.508;13.284;2023-07-30T04:37:02;19.80;99.90
12604;DHT22;6367;52.508;13.284;2023-07-30T04:39:29;19.90;99.90
12604;DHT22;6367;52.508;13.284;2023-07-30T04:41:54;19.90;99.90
12604;DHT22;6367;52.508;13.284;2023-07-30T04:44:20;19.90;99.90
12604;DHT22;6367;52.508;13.284;2023-07-30T04:46:46;19.90;99.90
12604;DHT22;6367;52.508;13.284;2023-07-30T04:49:11;20.00;99.90
12604;DHT22;6367;52.508;13.284;2023-07-30T04:51:37;19.90;99.90
12604;DHT22;6367;52.508;13.284;2023-07-30T04:54:03;20.00;99.90
12604;DHT22;6367;52.508;13.284;2023-07-30T04:56:29;20.10;99.90
12604;DHT22;6367;52.508;13.284;2023-07-30T04:58:55;20.10;99.90
12604;DHT22;6367;52.508;13.284;2023-07-30T05:01:20;20.10;99.90
12604;DHT22;6367;52.508;13.284;2023-07-30T05:03:46;20.10;99.90
12604;DHT22;6367;52.508;13.284;2023-07-30T05:06:12;20.20;99.90
12604;DHT22;6367;52.508;13.284;2023-07-30T05:08:37;20.20;99.90
12604;DHT22;6367;52.508;13.284;2023-07-30T05:11:03;20.20;99.90
12604;DHT22;6367;52.508;13.284;2023-07-30T05:13:29;20.30;99.90
12604;DHT22;6367;52.508;13.284;2023-07-30T05:15:54;20.30;99.90
12604;DHT22;6367;52.508;13.284;2023-07-30T05:18:20;20.30;99.90
12604;DHT22;6367;52.508;13.284;2023-07-30T05:20:46;20.30;99.90
12604;DHT22;6367;52.508;13.284;2023-07-30T05:23:12;20.40;99.90
12604;DHT22;6367;52.508;13.284;2023-07-30T05:25:37;20.40;99.90
12604;DHT22;6367;52.508;13.284;2023-07-30T05:28:03;20.50;99.90
12604;DHT22;6367;52.508;13.284;2023-07-30T05:30:29;20.60;99.90
12604;DHT22;6367;52.508;13.284;2023-07-30T05:32:55;20.70;99.90
12604;DHT22;6367;52.508;13.284;2023-07-30T05:35:20;20.80;99.90
12604;DHT22;6367;52.508;13.284;2023-07-30T05:37:47;20.80;99.90
12604;DHT22;6367;52.508;13.284;2023-07-30T05:40:12;20.80;99.90
12604;DHT22;6367;52.508;13.284;2023-07-30T05:42:38;20.80;99.90
12604;DHT22;6367;52.508;13.284;2023-07-30T05:45:04;20.90;99.90
12604;DHT22;6367;52.508;13.284;2023-07-30T05:47:30;20.90;99.90
12604;DHT22;6367;52.508;13.284;2023-07-30T05:49:55;21.00;99.90
12604;DHT22;6367;52.508;13.284;2023-07-30T05:52:21;21.00;99.90
12604;DHT22;6367;52.508;13.284;2023-07-30T05:54:46;21.10;99.90
12604;DHT22;6367;52.508;13.284;2023-07-30T05:57:12;21.20;99.90
12604;DHT22;6367;52.508;13.284;2023-07-30T05:59:38;21.20;99.90
12604;DHT22;6367;52.508;13.284;2023-07-30T06:02:03;21.30;99.90
12604;DHT22;6367;52.508;13.284;2023-07-30T06:04:30;21.30;99.90
12604;DHT22;6367;52.508;13.284;2023-07-30T06:06:55;21.40;99.90
12604;DHT22;6367;52.508;13.284;2023-07-30T06:09:21;21.50;99.90
12604;DHT22;6367;52.508;13.284;2023-07-30T06:11:47;21.50;99.90
12604;DHT22;6367;52.508;13.284;2023-07-30T06:14:12;21.60;99.90
12604;DHT22;6367;52.508;13.284;2023-07-30T06:16:38;21.70;99.90
12604;DHT22;6367;52.508;13.284;2023-07-30T06:19:03;21.70;99.90
12604;DHT22;6367;52.508;13.284;2023-07-30T06:21:29;21.60;99.90
12604;DHT22;6367;52.508;13.284;2023-07-30T06:23:55;21.80;99.90
12604;DHT22;6367;52.508;13.284;2023-07-30T06:26:20;21.90;99.90
12604;DHT22;6367;52.508;13.284;2023-07-30T06:28:46;21.90;99.90
12604;DHT22;6367;52.508;13.284;2023-07-30T06:31:12;21.90;99.90
12604;DHT22;6367;52.508;13.284;2023-07-30T06:33:37;22.00;99.90
12604;DHT22;6367;52.508;13.284;2023-07-30T06:36:04;22.00;99.90
12604;DHT22;6367;52.508;13.284;2023-07-30T06:38:29;22.10;99.90
12604;DHT22;6367;52.508;13.284;2023-07-30T06:40:55;22.20;99.90
12604;DHT22;6367;52.508;13.284;2023-07-30T06:43:24;22.30;99.90
12604;DHT22;6367;52.508;13.284;2023-07-30T06:45:49;22.40;99.90
12604;DHT22;6367;52.508;13.284;2023-07-30T06:48:15;22.40;99.90
12604;DHT22;6367;52.508;13.284;2023-07-30T06:50:41;22.50;99.90
12604;DHT22;6367;52.508;13.284;2023-07-30T06:53:07;22.70;99.90
12604;DHT22;6367;52.508;13.284;2023-07-30T06:55:33;22.90;99.90
12604;DHT22;6367;52.508;13.284;2023-07-30T06:57:59;23.10;99.90
12604;DHT22;6367;52.508;13.284;2023-07-30T07:00:24;23.60;99.90
12604;DHT22;6367;52.508;13.284;2023-07-30T07:02:50;24.30;99.90
12604;DHT22;6367;52.508;13.284;2023-07-30T07:05:16;24.80;99.90
12604;DHT22;6367;52.508;13.284;2023-07-30T07:07:42;25.20;99.90
12604;DHT22;6367;52.508;13.284;2023-07-30T07:10:08;25.20;99.90
12604;DHT22;6367;52.508;13.284;2023-07-30T07:12:36;25.40;99.90
12604;DHT22;6367;52.508;13.284;2023-07-30T07:15:03;25.30;99.90
12604;DHT22;6367;52.508;13.284;2023-07-30T07:17:29;25.20;99.90
12604;DHT22;6367;52.508;13.284;2023-07-30T07:19:54;25.20;99.90
12604;DHT22;6367;52.508;13.284;2023-07-30T07:22:20;25.10;99.90
12604;DHT22;6367;52.508;13.284;2023-07-30T07:24:46;25.00;99.90
12604;DHT22;6367;52.508;13.284;2023-07-30T07:27:11;25.00;99.90
12604;DHT22;6367;52.508;13.284;2023-07-30T07:29:37;24.90;99.90
12604;DHT22;6367;52.508;13.284;2023-07-30T07:32:03;24.90;99.90
12604;DHT22;6367;52.508;13.284;2023-07-30T07:34:29;24.80;99.90
12604;DHT22;6367;52.508;13.284;2023-07-30T07:36:55;24.60;99.90
12604;DHT22;6367;52.508;13.284;2023-07-30T07:39:20;24.50;99.90
12604;DHT22;6367;52.508;13.284;2023-07-30T07:41:46;24.40;99.90
12604;DHT22;6367;52.508;13.284;2023-07-30T07:44:12;24.30;99.90
12604;DHT22;6367;52.508;13.284;2023-07-30T07:46:37;24.20;99.90
12604;DHT22;6367;52.508;13.284;2023-07-30T07:49:03;24.20;99.90
12604;DHT22;6367;52.508;13.284;2023-07-30T07:51:28;24.20;99.90
12604;DHT22;6367;52.508;13.284;2023-07-30T07:53:54;24.20;99.90
12604;DHT22;6367;52.508;13.284;2023-07-30T07:56:20;24.30;99.90
12604;DHT22;6367;52.508;13.284;2023-07-30T07:58:46;24.40;99.90
12604;DHT22;6367;52.508;13.284;2023-07-30T08:01:11;24.40;99.90
12604;DHT22;6367;52.508;13.284;2023-07-30T08:03:37;24.50;99.90
12604;DHT22;6367;52.508;13.284;2023-07-30T08:06:03;24.60;99.90
12604;DHT22;6367;52.508;13.284;2023-07-30T08:08:28;24.50;99.90
12604;DHT22;6367;52.508;13.284;2023-07-30T08:10:54;24.50;99.90
12604;DHT22;6367;52.508;13.284;2023-07-30T08:13:20;24.60;99.90
12604;DHT22;6367;52.508;13.284;2023-07-30T08:15:46;24.60;99.90
12604;DHT22;6367;52.508;13.284;2023-07-30T08:18:11;24.60;99.90
12604;DHT22;6367;52.508;13.284;2023-07-30T08:20:37;24.70;99.90
12604;DHT22;6367;52.508;13.284;2023-07-30T08:23:03;24.80;99.90
12604;DHT22;6367;52.508;13.284;2023-07-30T08:25:29;24.80;99.90
12604;DHT22;6367;52.508;13.284;2023-07-30T08:27:55;24.90;99.90
12604;DHT22;6367;52.508;13.284;2023-07-30T08:30:21;24.30;99.90
12604;DHT22;6367;52.508;13.284;2023-07-30T08:32:46;24.80;99.90
12604;DHT22;6367;52.508;13.284;2023-07-30T08:35:12;24.80;99.90
12604;DHT22;6367;52.508;13.284;2023-07-30T08:37:38;24.70;99.90
12604;DHT22;6367;52.508;13.284;2023-07-30T08:40:04;24.70;99.90
12604;DHT22;6367;52.508;13.284;2023-07-30T08:42:30;24.60;99.90
12604;DHT22;6367;52.508;13.284;2023-07-30T08:44:56;24.50;99.90
12604;DHT22;6367;52.508;13.284;2023-07-30T08:47:21;24.40;99.90
12604;DHT22;6367;52.508;13.284;2023-07-30T08:49:47;24.50;99.90
12604;DHT22;6367;52.508;13.284;2023-07-30T08:52:13;24.60;99.90
12604;DHT22;6367;52.508;13.284;2023-07-30T08:54:42;24.60;99.90
12604;DHT22;6367;52.508;13.284;2023-07-30T08:57:10;24.60;99.90
12604;DHT22;6367;52.508;13.284;2023-07-30T08:59:48;24.70;99.90
12604;DHT22;6367;52.508;13.284;2023-07-30T09:02:24;24.70;99.90
12604;DHT22;6367;52.508;13.284;2023-07-30T09:04:54;24.80;99.90
12604;DHT22;6367;52.508;13.284;2023-07-30T09:07:23;24.80;99.90
12604;DHT22;6367;52.508;13.284;2023-07-30T09:09:49;24.80;99.90
12604;DHT22;6367;52.508;13.284;2023-07-30T09:12:15;24.80;99.90
12604;DHT22;6367;52.508;13.284;2023-07-30T09:14:41;24.90;99.90
12604;DHT22;6367;52.508;13.284;2023-07-30T09:17:11;25.00;99.90
12604;DHT22;6367;52.508;13.284;2023-07-30T09:19:37;25.00;99.90
12604;DHT22;6367;52.508;13.284;2023-07-30T09:22:06;25.00;99.90
12604;DHT22;6367;52.508;13.284;2023-07-30T09:24:32;25.10;99.90
12604;DHT22;6367;52.508;13.284;2023-07-30T09:27:01;25.20;99.90
12604;DHT22;6367;52.508;13.284;2023-07-30T09:29:27;25.30;99.90
12604;DHT22;6367;52.508;13.284;2023-07-30T09:31:54;25.40;99.90
12604;DHT22;6367;52.508;13.284;2023-07-30T09:34:21;25.40;99.90
12604;DHT22;6367;52.508;13.284;2023-07-30T09:36:49;25.40;99.90
12604;DHT22;6367;52.508;13.284;2023-07-30T09:39:25;25.50;99.90
12604;DHT22;6367;52.508;13.284;2023-07-30T09:41:53;25.60;99.90
12604;DHT22;6367;52.508;13.284;2023-07-30T09:44:24;25.70;99.90
12604;DHT22;6367;52.508;13.284;2023-07-30T09:46:53;25.80;99.90
12604;DHT22;6367;52.508;13.284;2023-07-30T09:49:19;25.90;99.90
12604;DHT22;6367;52.508;13.284;2023-07-30T09:51:45;25.90;99.90
12604;DHT22;6367;52.508;13.284;2023-07-30T09:54:13;26.00;99.90
12604;DHT22;6367;52.508;13.284;2023-07-30T09:56:40;26.10;99.90
12604;DHT22;6367;52.508;13.284;2023-07-30T09:59:07;26.10;99.90
12604;DHT22;6367;52.508;13.284;2023-07-30T10:01:46;26.20;99.90
12604;DHT22;6367;52.508;13.284;2023-07-30T10:04:13;26.30;99.90
12604;DHT22;6367;52.508;13.284;2023-07-30T10:06:46;26.30;99.90
12604;DHT22;6367;52.508;13.284;2023-07-30T10:09:13;26.30;99.90
12604;DHT22;6367;52.508;13.284;2023-07-30T10:11:42;26.40;99.90
12604;DHT22;6367;52.508;13.284;2023-07-30T10:14:08;26.40;99.90
12604;DHT22;6367;52.508;13.284;2023-07-30T10:16:34;26.40;99.90
12604;DHT22;6367;52.508;13.284;2023-07-30T10:18:59;26.30;99.90
12604;DHT22;6367;52.508;13.284;2023-07-30T10:21:27;26.20;99.90
12604;DHT22;6367;52.508;13.284;2023-07-30T10:24:04;26.20;99.90
12604;DHT22;6367;52.508;13.284;2023-07-30T10:26:35;25.90;99.90
12604;DHT22;6367;52.508;13.284;2023-07-30T10:29:11;25.90;99.90
12604;DHT22;6367;52.508;13.284;2023-07-30T10:31:48;25.70;99.90
12604;DHT22;6367;52.508;13.284;2023-07-30T10:34:14;25.70;99.90
12604;DHT22;6367;52.508;13.284;2023-07-30T10:36:48;25.60;99.90
12604;DHT22;6367;52.508;13.284;2023-07-30T10:39:15;25.70;99.90
12604;DHT22;6367;52.508;13.284;2023-07-30T10:41:43;25.70;99.90
12604;DHT22;6367;52.508;13.284;2023-07-30T10:44:27;25.80;99.90
12604;DHT22;6367;52.508;13.284;2023-07-30T10:46:54;25.90;99.90
12604;DHT22;6367;52.508;13.284;2023-07-30T10:49:20;26.00;99.80
12604;DHT22;6367;52.508;13.284;2023-07-30T10:51:46;26.20;99.10
12604;DHT22;6367;52.508;13.284;2023-07-30T10:54:12;26.30;98.60
12604;DHT22;6367;52.508;13.284;2023-07-30T10:56:38;26.40;98.30
12604;DHT22;6367;52.508;13.284;2023-07-30T10:59:05;26.40;97.90
12604;DHT22;6367;52.508;13.284;2023-07-30T11:01:41;26.60;97.50
12604;DHT22;6367;52.508;13.284;2023-07-30T11:04:20;26.70;97.10
12604;DHT22;6367;52.508;13.284;2023-07-30T11:06:50;26.70;96.70
12604;DHT22;6367;52.508;13.284;2023-07-30T11:09:24;26.80;95.40
12604;DHT22;6367;52.508;13.284;2023-07-30T11:11:51;26.70;95.50
12604;DHT22;6367;52.508;13.284;2023-07-30T11:14:18;26.80;95.80
12604;DHT22;6367;52.508;13.284;2023-07-30T11:16:54;26.80;95.70
12604;DHT22;6367;52.508;13.284;2023-07-30T11:19:20;26.80;95.70
12604;DHT22;6367;52.508;13.284;2023-07-30T11:21:50;26.90;95.40
12604;DHT22;6367;52.508;13.284;2023-07-30T11:24:16;26.90;95.40
12604;DHT22;6367;52.508;13.284;2023-07-30T11:26:43;27.10;94.50
12604;DHT22;6367;52.508;13.284;2023-07-30T11:29:18;27.00;94.20
12604;DHT22;6367;52.508;13.284;2023-07-30T11:31:45;27.10;93.30
12604;DHT22;6367;52.508;13.284;2023-07-30T11:34:12;27.20;93.20
12604;DHT22;6367;52.508;13.284;2023-07-30T11:36:39;27.30;92.90
12604;DHT22;6367;52.508;13.284;2023-07-30T11:39:06;27.30;93.10
12604;DHT22;6367;52.508;13.284;2023-07-30T11:41:32;27.30;93.30
12604;DHT22;6367;52.508;13.284;2023-07-30T11:43:58;27.30;92.90
12604;DHT22;6367;52.508;13.284;2023-07-30T11:46:24;27.30;93.30
12604;DHT22;6367;52.508;13.284;2023-07-30T11:48:53;27.30;93.20
12604;DHT22;6367;52.508;13.284;2023-07-30T11:51:23;27.50;92.60
12604;DHT22;6367;52.508;13.284;2023-07-30T11:53:50;27.50;92.40
12604;DHT22;6367;52.508;13.284;2023-07-30T11:56:30;27.50;92.50
12604;DHT22;6367;52.508;13.284;2023-07-30T11:59:06;27.60;92.60
12604;DHT22;6367;52.508;13.284;2023-07-30T12:01:34;27.60;91.80
12604;DHT22;6367;52.508;13.284;2023-07-30T12:04:01;27.70;91.20
12604;DHT22;6367;52.508;13.284;2023-07-30T12:09:19;27.80;90.80
12604;DHT22;6367;52.508;13.284;2023-07-30T12:12:00;27.80;90.50
12604;DHT22;6367;52.508;13.284;2023-07-30T12:14:29;27.70;90.40
12604;DHT22;6367;52.508;13.284;2023-07-30T12:17:02;27.60;90.50
12604;DHT22;6367;52.508;13.284;2023-07-30T12:19:27;27.50;90.80
12604;DHT22;6367;52.508;13.284;2023-07-30T12:21:53;27.50;91.10
12604;DHT22;6367;52.508;13.284;2023-07-30T12:24:19;27.50;91.10
12604;DHT22;6367;52.508;13.284;2023-07-30T12:26:44;27.40;91.30
12604;DHT22;6367;52.508;13.284;2023-07-30T12:29:10;27.30;91.50
12604;DHT22;6367;52.508;13.284;2023-07-30T12:31:36;27.20;91.50
12604;DHT22;6367;52.508;13.284;2023-07-30T12:34:01;27.30;91.90
12604;DHT22;6367;52.508;13.284;2023-07-30T12:36:28;27.30;91.90
12604;DHT22;6367;52.508;13.284;2023-07-30T12:38:54;27.40;91.90
12604;DHT22;6367;52.508;13.284;2023-07-30T12:41:20;27.40;91.80
12604;DHT22;6367;52.508;13.284;2023-07-30T12:43:52;27.40;91.90
12604;DHT22;6367;52.508;13.284;2023-07-30T12:46:18;27.40;91.60
12604;DHT22;6367;52.508;13.284;2023-07-30T12:48:44;27.30;91.70
12604;DHT22;6367;52.508;13.284;2023-07-30T12:51:10;27.30;91.60
12604;DHT22;6367;52.508;13.284;2023-07-30T12:53:35;27.40;91.60
12604;DHT22;6367;52.508;13.284;2023-07-30T12:56:01;27.40;91.60
12604;DHT22;6367;52.508;13.284;2023-07-30T12:58:27;27.40;91.70
12604;DHT22;6367;52.508;13.284;2023-07-30T13:00:52;27.40;91.40
12604;DHT22;6367;52.508;13.284;2023-07-30T13:03:18;27.30;91.20
12604;DHT22;6367;52.508;13.284;2023-07-30T13:05:44;27.20;91.30
12604;DHT22;6367;52.508;13.284;2023-07-30T13:08:09;27.30;91.30
12604;DHT22;6367;52.508;13.284;2023-07-30T13:10:35;27.30;91.20
12604;DHT22;6367;52.508;13.284;2023-07-30T13:13:01;27.40;90.70
12604;DHT22;6367;52.508;13.284;2023-07-30T13:15:26;27.40;90.40
12604;DHT22;6367;52.508;13.284;2023-07-30T13:17:53;27.40;89.80
12604;DHT22;6367;52.508;13.284;2023-07-30T13:20:19;27.20;89.80
12604;DHT22;6367;52.508;13.284;2023-07-30T13:22:44;27.30;89.40
12604;DHT22;6367;52.508;13.284;2023-07-30T13:25:10;27.30;89.40
12604;DHT22;6367;52.508;13.284;2023-07-30T13:27:36;27.20;89.30
12604;DHT22;6367;52.508;13.284;2023-07-30T13:30:02;27.30;89.20
12604;DHT22;6367;52.508;13.284;2023-07-30T13:32:27;27.30;88.10
12604;DHT22;6367;52.508;13.284;2023-07-30T13:34:53;27.40;86.40
12604;DHT22;6367;52.508;13.284;2023-07-30T13:37:18;27.30;84.60
12604;DHT22;6367;52.508;13.284;2023-07-30T13:39:44;27.20;85.00
12604;DHT22;6367;52.508;13.284;2023-07-30T13:42:10;27.10;84.20
12604;DHT22;6367;52.508;13.284;2023-07-30T13:44:35;27.10;84.30
12604;DHT22;6367;52.508;13.284;2023-07-30T13:47:01;27.00;84.30
12604;DHT22;6367;52.508;13.284;2023-07-30T13:49:27;26.90;84.80
12604;DHT22;6367;52.508;13.284;2023-07-30T13:51:53;26.90;85.20
12604;DHT22;6367;52.508;13.284;2023-07-30T13:54:18;26.80;85.80
12604;DHT22;6367;52.508;13.284;2023-07-30T13:56:44;26.80;86.00
12604;DHT22;6367;52.508;13.284;2023-07-30T13:59:09;26.80;86.70
12604;DHT22;6367;52.508;13.284;2023-07-30T14:01:35;26.70;87.40
12604;DHT22;6367;52.508;13.284;2023-07-30T14:04:01;26.70;87.90
12604;DHT22;6367;52.508;13.284;2023-07-30T14:06:27;26.70;88.40
12604;DHT22;6367;52.508;13.284;2023-07-30T14:08:54;26.50;88.10
12604;DHT22;6367;52.508;13.284;2023-07-30T14:11:19;26.60;88.30
12604;DHT22;6367;52.508;13.284;2023-07-30T14:13:46;26.50;87.90
12604;DHT22;6367;52.508;13.284;2023-07-30T14:16:11;26.50;88.00
12604;DHT22;6367;52.508;13.284;2023-07-30T14:18:37;26.40;87.80
12604;DHT22;6367;52.508;13.284;2023-07-30T14:21:04;26.40;88.30
12604;DHT22;6367;52.508;13.284;2023-07-30T14:23:30;26.30;89.50
12604;DHT22;6367;52.508;13.284;2023-07-30T14:25:56;26.30;90.30
12604;DHT22;6367;52.508;13.284;2023-07-30T14:28:21;26.20;90.70
12604;DHT22;6367;52.508;13.284;2023-07-30T14:30:47;26.10;90.80
12604;DHT22;6367;52.508;13.284;2023-07-30T14:33:13;26.10;91.10
12604;DHT22;6367;52.508;13.284;2023-07-30T14:35:39;26.10;91.40
12604;DHT22;6367;52.508;13.284;2023-07-30T14:38:05;26.00;91.90
12604;DHT22;6367;52.508;13.284;2023-07-30T14:40:32;25.80;92.20
12604;DHT22;6367;52.508;13.284;2023-07-30T14:42:57;25.70;91.80
12604;DHT22;6367;52.508;13.284;2023-07-30T14:45:24;25.60;92.00
12604;DHT22;6367;52.508;13.284;2023-07-30T14:47:50;25.40;92.00
12604;DHT22;6367;52.508;13.284;2023-07-30T14:50:15;25.30;91.90
12604;DHT22;6367;52.508;13.284;2023-07-30T14:52:41;25.20;92.40
12604;DHT22;6367;52.508;13.284;2023-07-30T14:55:07;25.10;92.40
12604;DHT22;6367;52.508;13.284;2023-07-30T14:57:33;25.00;92.80
12604;DHT22;6367;52.508;13.284;2023-07-30T14:59:59;24.90;93.50
12604;DHT22;6367;52.508;13.284;2023-07-30T15:02:28;24.80;94.70
12604;DHT22;6367;52.508;13.284;2023-07-30T15:04:54;24.80;95.60
12604;DHT22;6367;52.508;13.284;2023-07-30T15:07:20;24.60;96.10
12604;DHT22;6367;52.508;13.284;2023-07-30T15:09:53;24.50;96.60
12604;DHT22;6367;52.508;13.284;2023-07-30T15:12:19;24.40;97.40
12604;DHT22;6367;52.508;13.284;2023-07-30T15:14:45;24.20;97.90
12604;DHT22;6367;52.508;13.284;2023-07-30T15:17:10;23.90;98.70
12604;DHT22;6367;52.508;13.284;2023-07-30T15:19:36;23.90;98.80
12604;DHT22;6367;52.508;13.284;2023-07-30T15:22:02;24.00;99.00
12604;DHT22;6367;52.508;13.284;2023-07-30T15:24:28;24.00;99.30
12604;DHT22;6367;52.508;13.284;2023-07-30T15:26:53;23.90;99.60
12604;DHT22;6367;52.508;13.284;2023-07-30T15:29:21;23.90;99.90